Terminal Aerodrome Forecast
Issued by NWS

Current Version | Previous Version | Graphics & Text | Print | Product List | Glossary On
Versions: 1 2 3 4 5 6 7 8 9 10 11 12 13 14 15 16 17 18 19 20 21 22 23 24 25 26 27
632
FTUS41 KPBZ 201140
TAFHLG
TAF
KHLG 201140Z 2012/2112 00000KT 5SM HZ SCT250
     FM201600 25007KT P6SM SCT045
     FM202200 23008KT P6SM VCTS BKN045CB
     FM210200 23005KT P6SM SCT050=

USA.gov is the U.S. government's official web portal to all federal, state and local government web resources and services.